createdAt,value
2022-11-24T00:01:12.601Z,93850.06
2022-11-24T00:03:39.672Z,93878.69
2022-11-24T00:06:09.530Z,93852.94
2022-11-24T00:08:37.794Z,93872.00
2022-11-24T00:11:16.677Z,93885.72
2022-11-24T00:13:44.049Z,93898.16
2022-11-24T00:16:19.739Z,93888.78
2022-11-24T00:18:49.576Z,93891.19
2022-11-24T00:21:17.402Z,93904.41
2022-11-24T00:23:45.578Z,93896.53
2022-11-24T00:26:14.968Z,93932.50
2022-11-24T00:28:43.044Z,93923.28
2022-11-24T00:31:25.025Z,93925.75
2022-11-24T00:33:55.084Z,93898.84
2022-11-24T00:36:24.434Z,93919.91
2022-11-24T00:38:59.696Z,93935.09
2022-11-24T00:41:27.776Z,93912.03
2022-11-24T00:43:55.108Z,93926.22
2022-11-24T00:46:23.552Z,93937.13
2022-11-24T00:48:51.218Z,93923.00
2022-11-24T00:51:22.314Z,93945.75
2022-11-24T00:53:49.825Z,93956.06
2022-11-24T00:56:16.564Z,93929.47
2022-11-24T00:58:43.353Z,93968.13
2022-11-24T01:01:19.738Z,93962.06
2022-11-24T01:03:49.652Z,93973.19
2022-11-24T01:06:22.468Z,93965.91
2022-11-24T01:08:49.924Z,93983.16
2022-11-24T01:11:20.096Z,93991.53
2022-11-24T01:13:49.826Z,94004.75
2022-11-24T01:16:35.397Z,93982.22
2022-11-24T01:19:03.926Z,93996.34
2022-11-24T01:21:30.654Z,94010.41
2022-11-24T01:23:57.764Z,94013.41
2022-11-24T01:26:24.597Z,94008.03
2022-11-24T01:28:56.020Z,94033.34
2022-11-24T01:31:23.570Z,94012.66
2022-11-24T01:33:50.414Z,94017.84
2022-11-24T01:36:17.234Z,94006.19
2022-11-24T01:38:43.900Z,94043.25
2022-11-24T01:41:14.993Z,94068.31
2022-11-24T01:43:43.436Z,94060.81
2022-11-24T01:46:19.266Z,94057.84
2022-11-24T01:48:53.068Z,94061.41
2022-11-24T01:51:25.624Z,94078.75
2022-11-24T01:53:59.177Z,94068.78
2022-11-24T01:56:27.652Z,94087.34
2022-11-24T01:58:59.149Z,94085.53
2022-11-24T02:01:26.333Z,94117.31
2022-11-24T02:03:53.866Z,94095.69
2022-11-24T02:06:26.402Z,94093.94
2022-11-24T02:08:59.218Z,94088.97
2022-11-24T02:11:31.007Z,94089.06
2022-11-24T02:13:57.901Z,94102.81
2022-11-24T02:16:25.067Z,94116.56
2022-11-24T02:18:52.084Z,94114.44
2022-11-24T02:21:19.369Z,94125.47
2022-11-24T02:24:08.827Z,94125.72
2022-11-24T02:26:46.622Z,94126.16
2022-11-24T02:29:14.728Z,94120.69
2022-11-24T02:31:46.829Z,94142.00
2022-11-24T02:34:13.762Z,94113.94
2022-11-24T02:36:40.560Z,94114.34
2022-11-24T02:39:15.093Z,94149.06
2022-11-24T02:41:52.508Z,94146.59
2022-11-24T02:44:22.336Z,94146.16
2022-11-24T02:46:49.390Z,94160.53
2022-11-24T02:49:16.284Z,94147.19
2022-11-24T02:51:42.956Z,94160.44
2022-11-24T02:54:10.235Z,94179.25
2022-11-24T02:56:37.448Z,94159.41
2022-11-24T02:59:04.202Z,94172.00
2022-11-24T03:01:31.146Z,94159.88
2022-11-24T03:03:57.824Z,94194.19
2022-11-24T03:06:24.529Z,94185.75
2022-11-24T03:08:51.170Z,94193.34
2022-11-24T03:11:17.884Z,94202.84
2022-11-24T03:13:44.615Z,94194.84
2022-11-24T03:16:11.653Z,94175.28
2022-11-24T03:18:39.364Z,94189.53
2022-11-24T03:21:06.345Z,94174.94
2022-11-24T03:23:33.142Z,94181.56
2022-11-24T03:26:11.475Z,94189.44
2022-11-24T03:28:39.238Z,94193.09
2022-11-24T03:31:07.932Z,94212.22
2022-11-24T03:33:36.361Z,94187.38
2022-11-24T03:36:04.377Z,94200.22
2022-11-24T03:38:31.399Z,94197.34
2022-11-24T03:40:58.101Z,94225.31
2022-11-24T03:43:25.149Z,94211.94
2022-11-24T03:45:52.905Z,94190.09
2022-11-24T03:48:23.168Z,94205.00
2022-11-24T03:50:56.218Z,94177.41
2022-11-24T03:53:25.217Z,94202.41
2022-11-24T03:55:53.073Z,94196.47
2022-11-24T03:58:20.101Z,94189.81
2022-11-24T04:00:49.485Z,94219.81
2022-11-24T04:03:17.056Z,94212.16
2022-11-24T04:05:43.850Z,94197.03
2022-11-24T04:08:10.506Z,94192.84
2022-11-24T04:10:38.365Z,94220.19
2022-11-24T04:13:11.229Z,94191.56
2022-11-24T04:15:40.408Z,94204.47
2022-11-24T04:18:08.300Z,94222.94
2022-11-24T04:20:36.282Z,94231.94
2022-11-24T04:23:03.322Z,94222.72
2022-11-24T04:25:30.519Z,94226.84
2022-11-24T04:27:57.929Z,94212.06
2022-11-24T04:30:27.268Z,94229.91
2022-11-24T04:32:54.651Z,94222.72
2022-11-24T04:35:21.772Z,94223.16
2022-11-24T04:37:48.550Z,94228.44
2022-11-24T04:40:15.916Z,94235.53
2022-11-24T04:42:42.744Z,94242.69
2022-11-24T04:45:11.588Z,94244.34
2022-11-24T04:47:39.618Z,94200.69
2022-11-24T04:50:08.550Z,94213.41
2022-11-24T04:52:35.543Z,94275.06
2022-11-24T04:55:02.208Z,94236.63
2022-11-24T04:57:29.185Z,94203.25
2022-11-24T04:59:55.970Z,94245.47
2022-11-24T05:02:23.656Z,94263.63
2022-11-24T05:04:50.637Z,94261.94
2022-11-24T05:07:19.412Z,94255.88
2022-11-24T05:10:05.770Z,94259.88
2022-11-24T05:12:32.523Z,94272.56
2022-11-24T05:15:03.974Z,94293.78
2022-11-24T05:17:32.566Z,94280.97
2022-11-24T05:19:59.372Z,94282.31
2022-11-24T05:22:28.014Z,94245.53
2022-11-24T05:24:55.357Z,94282.03
2022-11-24T05:27:22.808Z,94277.22
2022-11-24T05:29:49.693Z,94280.81
2022-11-24T05:32:16.534Z,94273.72
2022-11-24T05:34:43.356Z,94290.34
2022-11-24T05:37:10.392Z,94292.41
2022-11-24T05:39:37.460Z,94283.09
2022-11-24T05:42:25.023Z,94273.34
2022-11-24T05:44:52.616Z,94282.28
2022-11-24T05:47:19.582Z,94316.72
2022-11-24T05:49:46.449Z,94308.19
2022-11-24T05:52:13.908Z,94293.66
2022-11-24T05:54:40.888Z,94304.25
2022-11-24T05:57:07.777Z,94318.78
2022-11-24T05:59:34.452Z,94305.56
2022-11-24T06:02:01.426Z,94299.88
2022-11-24T06:04:28.459Z,94321.31
2022-11-24T06:06:56.000Z,94309.41
2022-11-24T06:09:22.743Z,94321.03
2022-11-24T06:11:49.798Z,94328.66
2022-11-24T06:14:16.468Z,94315.50
2022-11-24T06:16:43.393Z,94329.50
2022-11-24T06:19:11.174Z,94327.47
2022-11-24T06:21:37.921Z,94346.59
2022-11-24T06:24:05.530Z,94344.53
2022-11-24T06:26:32.737Z,94340.50
2022-11-24T06:28:59.548Z,94321.44
2022-11-24T06:31:26.504Z,94336.44
2022-11-24T06:33:53.379Z,94378.09
2022-11-24T06:36:20.499Z,94376.94
2022-11-24T06:38:47.256Z,94378.22
2022-11-24T06:41:15.998Z,94366.31
2022-11-24T06:43:42.915Z,94348.34
2022-11-24T06:46:10.751Z,94373.16
2022-11-24T06:48:38.108Z,94378.47
2022-11-24T06:51:10.764Z,94370.63
2022-11-24T06:53:38.607Z,94350.69
2022-11-24T06:56:12.192Z,94361.34
2022-11-24T06:58:44.280Z,94369.66
2022-11-24T07:01:19.093Z,94352.13
2022-11-24T07:03:46.609Z,94386.25
2022-11-24T07:06:13.670Z,94381.22
2022-11-24T07:08:42.361Z,94384.84
2022-11-24T07:11:13.352Z,94407.06
2022-11-24T07:13:40.245Z,94433.72
2022-11-24T07:16:21.846Z,94431.31
2022-11-24T07:18:51.607Z,94431.72
2022-11-24T07:21:20.343Z,94414.66
2022-11-24T07:23:51.543Z,94408.28
2022-11-24T07:26:19.062Z,94417.09
2022-11-24T07:28:45.872Z,94439.38
2022-11-24T07:31:15.529Z,94440.94
2022-11-24T07:33:42.412Z,94452.59
2022-11-24T07:36:10.501Z,94411.72
2022-11-24T07:38:37.233Z,94426.91
2022-11-24T07:41:06.143Z,94457.94
2022-11-24T07:43:35.788Z,94471.41
2022-11-24T07:46:02.832Z,94520.28
2022-11-24T07:48:29.806Z,94547.63
2022-11-24T07:50:59.379Z,94552.19
2022-11-24T07:53:27.181Z,94516.56
2022-11-24T07:55:56.527Z,94554.72
2022-11-24T07:58:26.420Z,94515.19
2022-11-24T08:00:56.817Z,94546.53
2022-11-24T08:03:25.497Z,94526.69
2022-11-24T08:08:47.151Z,94542.97
2022-11-24T08:11:16.977Z,94534.41
2022-11-24T08:13:43.964Z,94529.06
2022-11-24T08:16:13.626Z,94540.16
2022-11-24T08:18:41.679Z,94541.06
2022-11-24T08:21:13.010Z,94559.28
2022-11-24T08:23:41.065Z,94580.41
2022-11-24T08:26:13.840Z,94560.56
2022-11-24T08:28:40.962Z,94576.41
2022-11-24T08:31:11.281Z,94588.53
2022-11-24T08:33:38.533Z,94550.94
2022-11-24T08:36:12.618Z,94559.78
2022-11-24T08:38:39.698Z,94559.97
2022-11-24T08:41:13.870Z,94578.44
2022-11-24T08:43:42.104Z,94584.31
2022-11-24T08:46:12.788Z,94564.41
2022-11-24T08:48:41.065Z,94601.47
2022-11-24T08:51:13.986Z,94582.75
2022-11-24T08:53:42.378Z,94577.31
2022-11-24T08:56:11.210Z,94543.38
2022-11-24T08:58:39.205Z,94507.97
2022-11-24T09:01:11.370Z,94520.41
2022-11-24T09:03:42.205Z,94510.50
2022-11-24T09:06:12.701Z,94504.59
2022-11-24T09:08:39.966Z,94483.06
2022-11-24T09:11:09.330Z,94492.84
2022-11-24T09:13:36.717Z,94488.34
2022-11-24T09:16:09.327Z,94502.47
2022-11-24T09:18:36.064Z,94472.88
2022-11-24T09:21:22.582Z,94481.31
2022-11-24T09:23:50.500Z,94472.59
2022-11-24T09:26:23.069Z,94484.59
2022-11-24T09:28:50.625Z,94492.19
2022-11-24T09:31:18.111Z,94478.75
2022-11-24T09:33:45.780Z,94490.13
2022-11-24T09:36:14.611Z,94470.28
2022-11-24T09:38:42.781Z,94484.19
2022-11-24T09:41:46.126Z,94498.88
2022-11-24T09:44:16.234Z,94485.72
2022-11-24T09:47:08.263Z,94494.63
2022-11-24T09:49:38.005Z,94517.09
2022-11-24T09:52:11.888Z,94552.91
2022-11-24T09:54:49.326Z,94523.91
2022-11-24T09:57:16.956Z,94514.59
2022-11-24T09:59:43.825Z,94494.06
2022-11-24T10:02:14.098Z,94499.72
2022-11-24T10:04:46.506Z,94488.16
2022-11-24T10:07:23.179Z,94501.56
2022-11-24T10:09:52.988Z,94510.91
2022-11-24T10:12:44.928Z,94500.94
2022-11-24T10:15:25.674Z,94476.94
2022-11-24T10:18:16.527Z,94496.28
2022-11-24T10:21:05.913Z,94496.53
2022-11-24T10:24:04.717Z,94517.28
2022-11-24T10:26:40.705Z,94505.88
2022-11-24T10:29:33.577Z,94518.97
2022-11-24T10:32:04.956Z,94485.22
2022-11-24T10:34:35.489Z,94504.78
2022-11-24T10:37:13.269Z,94496.69
2022-11-24T10:40:00.770Z,94462.50
2022-11-24T10:42:38.812Z,94477.84
2022-11-24T10:45:18.512Z,94436.47
2022-11-24T10:47:46.637Z,94457.81
2022-11-24T10:50:24.797Z,94445.03
2022-11-24T10:52:57.625Z,94456.41
2022-11-24T10:55:24.852Z,94448.25
2022-11-24T10:57:51.577Z,94451.63
2022-11-24T11:00:21.368Z,94438.91
2022-11-24T11:02:50.304Z,94452.03
2022-11-24T11:05:26.229Z,94454.78
2022-11-24T11:08:30.413Z,94445.03
2022-11-24T11:11:21.200Z,94465.09
2022-11-24T11:13:52.058Z,94461.13
2022-11-24T11:16:51.143Z,94456.59
2022-11-24T11:20:01.598Z,94484.16
2022-11-24T11:22:37.289Z,94459.59
2022-11-24T11:25:18.459Z,94459.19
2022-11-24T11:27:45.841Z,94470.72
2022-11-24T11:36:11.536Z,94464.31
2022-11-24T11:38:39.993Z,94494.81
2022-11-24T11:41:17.149Z,94477.03
2022-11-24T11:43:47.710Z,94458.91
2022-11-24T11:46:16.994Z,94444.41
2022-11-24T11:48:47.170Z,94468.75
2022-11-24T11:51:34.413Z,94493.88
2022-11-24T11:54:04.202Z,94482.06
2022-11-24T11:56:40.293Z,94506.72
2022-11-24T11:59:34.413Z,94497.56
2022-11-24T12:02:23.061Z,94474.81
2022-11-24T12:05:01.244Z,94513.44
2022-11-24T12:07:51.751Z,94502.09
2022-11-24T12:10:23.515Z,94499.41
2022-11-24T12:13:25.141Z,94513.69
2022-11-24T12:15:54.297Z,94476.63
2022-11-24T12:18:57.749Z,94493.00
2022-11-24T12:21:33.866Z,94492.72
2022-11-24T12:24:25.959Z,94507.19
2022-11-24T12:27:10.528Z,94529.59
2022-11-24T12:30:07.973Z,94522.81
2022-11-24T12:33:00.495Z,94524.59
2022-11-24T12:35:44.672Z,94519.38
2022-11-24T12:38:21.137Z,94545.34
2022-11-24T12:44:36.047Z,94545.19
2022-11-24T12:47:10.506Z,94555.13
2022-11-24T12:49:43.760Z,94544.97
2022-11-24T12:52:23.713Z,94489.19
2022-11-24T12:54:50.480Z,94514.56
2022-11-24T12:57:26.151Z,94529.59
2022-11-24T13:00:10.687Z,94541.28
2022-11-24T13:03:15.828Z,94561.75
2022-11-24T13:05:59.743Z,94565.22
2022-11-24T13:08:29.893Z,94529.34
2022-11-24T13:11:22.549Z,94529.78
2022-11-24T13:14:00.097Z,94550.75
2022-11-24T13:16:36.180Z,94527.75
2022-11-24T13:19:14.837Z,94554.16
2022-11-24T13:21:41.647Z,94533.38
2022-11-24T13:24:18.232Z,94533.31
2022-11-24T13:26:50.044Z,94573.94
2022-11-24T13:29:29.116Z,94552.84
2022-11-24T13:32:19.134Z,94545.63
2022-11-24T13:34:46.066Z,94535.03
2022-11-24T13:37:34.803Z,94536.38
2022-11-24T13:40:11.868Z,94524.28
2022-11-24T13:43:02.554Z,94524.50
2022-11-24T13:45:49.783Z,94533.50
2022-11-24T13:48:19.310Z,94553.78
2022-11-24T13:50:55.028Z,94537.06
2022-11-24T13:53:47.666Z,94568.56
2022-11-24T13:56:15.457Z,94573.75
2022-11-24T13:58:42.124Z,94546.19
2022-11-24T14:01:44.377Z,94551.78
2022-11-24T14:04:30.428Z,94578.03
2022-11-24T14:07:07.976Z,94555.03
2022-11-24T14:09:35.932Z,94565.75
2022-11-24T14:12:13.270Z,94537.28
2022-11-24T14:14:41.475Z,94551.00
2022-11-24T14:17:17.891Z,94579.34
2022-11-24T14:19:47.785Z,94576.53
2022-11-24T14:22:31.473Z,94575.31
2022-11-24T14:25:00.885Z,94574.44
2022-11-24T14:27:31.587Z,94562.66
2022-11-24T14:30:03.491Z,94580.81
2022-11-24T14:32:31.524Z,94529.38
2022-11-24T14:34:58.469Z,94539.44
2022-11-24T14:37:25.453Z,94531.22
2022-11-24T14:39:52.267Z,94509.59
2022-11-24T14:42:23.994Z,94524.34
2022-11-24T14:44:56.580Z,94539.03
2022-11-24T14:47:45.139Z,94543.59
2022-11-24T14:50:19.314Z,94586.41
2022-11-24T14:52:56.984Z,94595.56
2022-11-24T14:55:31.315Z,94582.59
2022-11-24T14:58:00.360Z,94610.19
2022-11-24T15:00:30.334Z,94617.00
2022-11-24T15:03:18.088Z,94610.06
2022-11-24T15:06:17.014Z,94596.81
2022-11-24T15:08:48.186Z,94595.88
2022-11-24T15:11:16.874Z,94597.50
2022-11-24T15:13:54.370Z,94650.00
2022-11-24T15:16:25.145Z,94610.72
2022-11-24T15:19:03.078Z,94626.81
2022-11-24T15:21:37.119Z,94634.25
2022-11-24T15:24:18.937Z,94604.00
2022-11-24T15:26:47.289Z,94659.75
2022-11-24T15:29:14.254Z,94645.97
2022-11-24T15:31:45.300Z,94625.63
2022-11-24T15:34:17.389Z,94639.94
2022-11-24T15:36:44.228Z,94665.97
2022-11-24T15:39:12.896Z,94680.50
2022-11-24T15:41:41.062Z,94668.31
2022-11-24T15:44:08.167Z,94682.03
2022-11-24T15:46:38.585Z,94671.22
2022-11-24T15:49:06.201Z,94687.03
2022-11-24T15:51:33.834Z,94670.81
2022-11-24T15:54:01.906Z,94680.78
2022-11-24T15:56:36.725Z,94654.81
2022-11-24T15:59:05.017Z,94643.34
2022-11-24T16:01:35.525Z,94669.94
2022-11-24T16:04:02.807Z,94659.84
2022-11-24T16:06:29.834Z,94636.00
2022-11-24T16:08:58.994Z,94668.28
2022-11-24T16:11:26.376Z,94678.16
2022-11-24T16:13:54.347Z,94679.91
2022-11-24T16:16:23.400Z,94711.88
2022-11-24T16:18:50.893Z,94689.06
2022-11-24T16:21:17.924Z,94703.25
2022-11-24T16:23:46.348Z,94708.84
2022-11-24T16:26:13.199Z,94662.38
2022-11-24T16:28:40.689Z,94702.00
2022-11-24T16:31:07.974Z,94678.75
2022-11-24T16:33:35.118Z,94667.53
2022-11-24T16:36:02.993Z,94691.06
2022-11-24T16:38:29.745Z,94677.81
2022-11-24T16:40:57.654Z,94692.34
2022-11-24T16:43:24.738Z,94691.38
2022-11-24T16:46:19.691Z,94709.41
2022-11-24T16:48:49.375Z,94706.81
2022-11-24T16:51:17.621Z,94743.53
2022-11-24T16:53:44.883Z,94737.13
2022-11-24T16:56:11.982Z,94725.28
2022-11-24T16:58:40.432Z,94755.41
2022-11-24T17:01:10.414Z,94736.47
2022-11-24T17:03:37.598Z,94744.47
2022-11-24T17:06:11.983Z,94740.16
2022-11-24T17:08:40.457Z,94732.63
2022-11-24T17:11:09.403Z,94730.78
2022-11-24T17:13:36.715Z,94726.22
2022-11-24T17:16:08.581Z,94721.88
2022-11-24T17:18:35.971Z,94717.97
2022-11-24T17:21:09.258Z,94692.59
2022-11-24T17:23:36.613Z,94711.81
2022-11-24T17:26:10.374Z,94710.53
2022-11-24T17:28:37.812Z,94718.72
2022-11-24T17:31:21.805Z,94697.66
2022-11-24T17:33:50.128Z,94724.91
2022-11-24T17:36:18.924Z,94703.78
2022-11-24T17:38:45.747Z,94722.00
2022-11-24T17:41:14.263Z,94712.97
2022-11-24T17:43:41.110Z,94712.91
2022-11-24T17:46:10.300Z,94729.19
2022-11-24T17:48:37.158Z,94724.66
2022-11-24T17:51:08.484Z,94737.91
2022-11-24T17:53:37.032Z,94730.41
2022-11-24T17:56:05.317Z,94740.63
2022-11-24T17:58:41.309Z,94724.91
2022-11-24T18:01:10.066Z,94753.00
2022-11-24T18:03:38.787Z,94740.38
2022-11-24T18:06:10.993Z,94742.31
2022-11-24T18:08:39.682Z,94756.47
2022-11-24T18:11:25.976Z,94763.28
2022-11-24T18:14:00.940Z,94776.25
2022-11-24T18:16:31.264Z,94783.28
2022-11-24T18:19:08.807Z,94779.28
2022-11-24T18:21:37.831Z,94766.13
2022-11-24T18:24:05.666Z,94776.00
2022-11-24T18:26:33.107Z,94787.00
2022-11-24T18:28:59.919Z,94785.09
2022-11-24T18:31:27.661Z,94770.94
2022-11-24T18:33:54.460Z,94764.31
2022-11-24T18:36:28.376Z,94759.50
2022-11-24T18:38:57.543Z,94770.94
2022-11-24T18:41:24.300Z,94781.28
2022-11-24T18:43:51.040Z,94770.94
2022-11-24T18:46:19.357Z,94766.34
2022-11-24T18:48:46.191Z,94763.97
2022-11-24T18:51:14.825Z,94765.50
2022-11-24T18:53:43.809Z,94750.88
2022-11-24T18:56:19.729Z,94752.56
2022-11-24T18:58:46.685Z,94745.03
2022-11-24T19:01:15.716Z,94732.78
2022-11-24T19:03:49.839Z,94744.53
2022-11-24T19:06:22.373Z,94756.13
2022-11-24T19:08:53.339Z,94760.06
2022-11-24T19:11:25.674Z,94771.94
2022-11-24T19:13:52.718Z,94770.88
2022-11-24T19:16:21.366Z,94744.63
2022-11-24T19:18:54.315Z,94752.34
2022-11-24T19:21:22.210Z,94765.34
2022-11-24T19:23:50.373Z,94751.94
2022-11-24T19:26:18.504Z,94750.38
2022-11-24T19:28:45.533Z,94754.72
2022-11-24T19:31:15.462Z,94753.16
2022-11-24T19:33:43.229Z,94739.25
2022-11-24T19:36:14.081Z,94775.25
2022-11-24T19:38:41.527Z,94776.91
2022-11-24T19:41:13.268Z,94779.88
2022-11-24T19:43:41.057Z,94791.03
2022-11-24T19:46:13.331Z,94799.31
2022-11-24T19:48:51.447Z,94797.00
2022-11-24T19:51:21.834Z,94784.50
2022-11-24T19:53:50.428Z,94780.13
2022-11-24T19:56:20.437Z,94780.56
2022-11-24T19:58:49.109Z,94775.31
2022-11-24T20:01:16.893Z,94772.47
2022-11-24T20:03:45.630Z,94781.97
2022-11-24T20:06:14.504Z,94781.25
2022-11-24T20:08:42.346Z,94788.31
2022-11-24T20:11:12.706Z,94799.69
2022-11-24T20:13:41.476Z,94798.78
2022-11-24T20:16:13.821Z,94776.59
2022-11-24T20:18:46.517Z,94765.72
2022-11-24T20:21:16.409Z,94773.28
2022-11-24T20:23:45.006Z,94761.53
2022-11-24T20:26:15.607Z,94757.91
2022-11-24T20:28:42.887Z,94778.63
2022-11-24T20:31:13.763Z,94752.88
2022-11-24T20:33:41.244Z,94758.00
2022-11-24T20:36:13.932Z,94763.47
2022-11-24T20:38:42.187Z,94772.03
2022-11-24T20:41:11.938Z,94784.00
2022-11-24T20:43:39.541Z,94771.47
2022-11-24T20:46:12.529Z,94780.50
2022-11-24T20:48:39.955Z,94789.34
2022-11-24T20:51:17.000Z,94777.09
2022-11-24T20:53:45.021Z,94768.72
2022-11-24T20:56:23.714Z,94784.56
2022-11-24T20:58:51.345Z,94765.09
2022-11-24T21:01:24.591Z,94765.34
2022-11-24T21:03:54.311Z,94781.28
2022-11-24T21:06:21.304Z,94786.22
2022-11-24T21:08:48.145Z,94773.31
2022-11-24T21:11:16.327Z,94780.88
2022-11-24T21:13:45.094Z,94748.88
2022-11-24T21:16:21.503Z,94751.31
2022-11-24T21:18:51.191Z,94774.56
2022-11-24T21:21:20.636Z,94775.50
2022-11-24T21:23:48.140Z,94775.22
2022-11-24T21:26:17.494Z,94771.03
2022-11-24T21:28:46.852Z,94748.88
2022-11-24T21:31:19.989Z,94763.84
2022-11-24T21:33:49.859Z,94760.63
2022-11-24T21:36:21.013Z,94774.09
2022-11-24T21:39:06.352Z,94762.91
2022-11-24T21:41:34.757Z,94727.38
2022-11-24T21:44:01.542Z,94751.66
2022-11-24T21:46:30.349Z,94741.50
2022-11-24T21:48:57.128Z,94743.81
2022-11-24T21:51:24.271Z,94743.72
2022-11-24T21:53:52.950Z,94739.97
2022-11-24T21:56:23.229Z,94734.13
2022-11-24T21:58:55.341Z,94745.72
2022-11-24T22:01:24.737Z,94753.88
2022-11-24T22:03:52.212Z,94760.81
2022-11-24T22:06:21.972Z,94762.41
2022-11-24T22:08:50.449Z,94747.69
2022-11-24T22:11:21.354Z,94761.50
2022-11-24T22:13:48.637Z,94763.78
2022-11-24T22:16:17.842Z,94740.34
2022-11-24T22:18:45.743Z,94731.81
2022-11-24T22:21:30.007Z,94744.00
2022-11-24T22:23:57.433Z,94772.25
2022-11-24T22:26:24.789Z,94776.22
2022-11-24T22:28:53.554Z,94782.44
2022-11-24T22:31:23.045Z,94781.63
2022-11-24T22:33:51.678Z,94788.56
2022-11-24T22:36:21.838Z,94784.97
2022-11-24T22:38:55.165Z,94777.91
2022-11-24T22:41:22.611Z,94771.81
2022-11-24T22:43:50.794Z,94803.66
2022-11-24T22:46:21.058Z,94794.03
2022-11-24T22:48:49.391Z,94787.00
2022-11-24T22:51:23.733Z,94777.06
2022-11-24T22:53:53.776Z,94787.53
2022-11-24T22:56:21.836Z,94788.56
2022-11-24T22:58:49.262Z,94793.94
2022-11-24T23:01:22.188Z,94800.75
2022-11-24T23:03:51.016Z,94786.94
2022-11-24T23:06:21.263Z,94802.22
2022-11-24T23:08:48.967Z,94791.47
2022-11-24T23:11:18.382Z,94793.59
2022-11-24T23:13:45.529Z,94804.00
2022-11-24T23:16:15.539Z,94799.59
2022-11-24T23:18:44.128Z,94799.16
2022-11-24T23:21:13.354Z,94777.59
2022-11-24T23:23:40.483Z,94761.72
2022-11-24T23:26:16.535Z,94780.31
2022-11-24T23:28:43.389Z,94777.13
2022-11-24T23:31:13.142Z,94763.75
2022-11-24T23:33:40.474Z,94744.13
2022-11-24T23:36:15.445Z,94742.13
2022-11-24T23:38:42.540Z,94742.59
2022-11-24T23:41:12.496Z,94753.22
2022-11-24T23:43:41.289Z,94772.03
2022-11-24T23:46:22.609Z,94779.69
2022-11-24T23:48:51.748Z,94778.81
2022-11-24T23:51:25.283Z,94771.72
2022-11-24T23:53:53.729Z,94786.56
2022-11-24T23:56:24.457Z,94778.22
2022-11-24T23:58:52.700Z,94767.81
